createdAt,value
2019-04-01T00:00:20.897Z,52.441406
2019-04-01T00:01:21.025Z,52.337646
2019-04-01T00:02:21.163Z,52.844238
2019-04-01T00:03:21.273Z,52.337646
2019-04-01T00:04:22.391Z,52.740479
2019-04-01T00:05:21.393Z,52.740479
2019-04-01T00:06:21.531Z,52.539062
2019-04-01T00:07:21.709Z,52.441406
2019-04-01T00:08:21.840Z,52.642822
2019-04-01T00:09:21.963Z,52.844238
2019-04-01T00:10:22.123Z,52.740479
2019-04-01T00:11:22.275Z,52.844238
2019-04-01T00:12:22.412Z,52.740479
2019-04-01T00:13:22.546Z,52.740479
2019-04-01T00:14:22.688Z,52.740479
2019-04-01T00:15:22.823Z,52.642822
2019-04-01T00:16:22.950Z,52.966309
2019-04-01T00:17:23.106Z,52.441406
2019-04-01T00:18:23.237Z,52.038574
2019-04-01T00:19:23.368Z,52.844238
2019-04-01T00:20:23.496Z,52.966309
2019-04-01T00:21:23.626Z,53.070068
2019-04-01T00:22:23.743Z,53.167725
2019-04-01T00:23:23.878Z,53.167725
2019-04-01T00:24:23.997Z,53.167725
2019-04-01T00:25:24.113Z,52.563477
2019-04-01T00:26:24.289Z,53.167725
2019-04-01T00:27:24.448Z,52.966309
2019-04-01T00:28:24.594Z,52.966309
2019-04-01T00:29:24.756Z,53.167725
2019-04-01T00:30:24.881Z,53.070068
2019-04-01T00:31:25.028Z,53.070068
2019-04-01T00:32:25.174Z,53.271484
2019-04-01T00:33:25.318Z,53.271484
2019-04-01T00:34:25.456Z,53.070068
2019-04-01T00:35:25.577Z,53.167725
2019-04-01T00:36:25.713Z,53.167725
2019-04-01T00:37:25.844Z,52.966309
2019-04-01T00:38:25.961Z,52.844238
2019-04-01T00:39:25.951Z,52.667236
2019-04-01T00:40:26.046Z,53.271484
2019-04-01T00:41:26.163Z,53.167725
2019-04-01T00:42:26.292Z,53.167725
2019-04-01T00:43:26.429Z,53.070068
2019-04-01T00:44:26.559Z,53.167725
2019-04-01T00:45:27.681Z,52.966309
2019-04-01T00:46:26.696Z,53.070068
2019-04-01T00:47:26.833Z,53.271484
2019-04-01T00:48:26.970Z,53.375244
2019-04-01T00:49:27.107Z,53.271484
2019-04-01T00:50:27.229Z,53.167725
2019-04-01T00:51:27.352Z,53.271484
2019-04-01T00:52:27.472Z,53.167725
2019-04-01T00:53:27.584Z,52.868652
2019-04-01T00:54:27.688Z,53.167725
2019-04-01T00:55:27.817Z,53.375244
2019-04-01T00:56:27.947Z,53.070068
2019-04-01T00:57:28.049Z,53.271484
2019-04-01T00:58:30.456Z,53.167725
2019-04-01T00:59:28.342Z,53.4729
2019-04-01T01:00:28.456Z,53.375244
2019-04-01T01:01:28.589Z,53.271484
2019-04-01T01:02:28.707Z,53.4729
2019-04-01T01:03:28.880Z,53.375244
2019-04-01T01:04:29.014Z,53.167725
2019-04-01T01:05:29.172Z,53.375244
2019-04-01T01:06:29.240Z,53.375244
2019-04-01T01:07:29.388Z,53.070068
2019-04-01T01:08:29.530Z,53.375244
2019-04-01T01:09:29.680Z,53.4729
2019-04-01T01:10:29.807Z,53.57666
2019-04-01T01:11:29.916Z,53.57666
2019-04-01T01:12:30.030Z,53.375244
2019-04-01T01:13:30.157Z,53.271484
2019-04-01T01:14:30.326Z,53.167725
2019-04-01T01:15:30.459Z,53.375244
2019-04-01T01:16:30.616Z,53.070068
2019-04-01T01:17:30.737Z,53.167725
2019-04-01T01:18:30.878Z,53.375244
2019-04-01T01:20:48.777Z,53.674316
2019-04-01T01:21:48.914Z,53.4729
2019-04-01T01:22:49.042Z,53.167725
2019-04-01T01:23:49.181Z,53.375244
2019-04-01T01:24:49.343Z,53.4729
2019-04-01T01:25:49.489Z,53.4729
2019-04-01T01:26:49.638Z,53.167725
2019-04-01T01:27:49.769Z,53.57666
2019-04-01T01:28:49.890Z,53.4729
2019-04-01T01:29:50.007Z,53.4729
2019-04-01T01:30:50.133Z,52.966309
2019-04-01T01:31:50.279Z,53.4729
2019-04-01T01:32:50.408Z,53.375244
2019-04-01T01:33:50.530Z,53.57666
2019-04-01T01:34:50.686Z,53.271484
2019-04-01T01:35:50.801Z,53.070068
2019-04-01T01:36:50.940Z,52.764893
2019-04-01T01:37:59.158Z,53.070068
2019-04-01T01:38:51.179Z,53.167725
2019-04-01T01:39:51.327Z,53.4729
2019-04-01T01:40:51.475Z,53.674316
2019-04-01T01:41:51.591Z,53.57666
2019-04-01T01:42:51.741Z,53.57666
2019-04-01T01:43:51.892Z,53.167725
2019-04-01T01:44:52.006Z,53.57666
2019-04-01T01:45:52.183Z,53.674316
2019-04-01T01:46:52.270Z,53.4729
2019-04-01T01:47:52.298Z,53.57666
2019-04-01T01:48:52.440Z,53.674316
2019-04-01T01:49:52.577Z,53.57666
2019-04-01T01:50:53.705Z,53.674316
2019-04-01T01:51:52.729Z,53.778076
2019-04-01T01:52:52.876Z,53.778076
2019-04-01T01:53:53.012Z,53.271484
2019-04-01T01:54:53.154Z,53.69873
2019-04-01T01:55:53.280Z,53.778076
2019-04-01T01:56:53.409Z,53.4729
2019-04-01T01:57:53.550Z,53.778076
2019-04-01T01:58:53.706Z,53.778076
2019-04-01T01:59:53.868Z,53.674316
2019-04-01T02:00:54.006Z,53.674316
2019-04-01T02:01:54.158Z,53.80249
2019-04-01T02:02:54.295Z,53.80249
2019-04-01T02:03:54.450Z,53.497314
2019-04-01T02:04:54.576Z,53.601074
2019-04-01T02:05:54.736Z,53.399658
2019-04-01T02:06:54.888Z,53.69873
2019-04-01T02:07:55.049Z,53.900146
2019-04-01T02:08:55.190Z,53.601074
2019-04-01T02:09:55.387Z,54.101562
2019-04-01T02:10:55.511Z,53.900146
2019-04-01T02:11:55.650Z,54.003906
2019-04-01T02:12:55.774Z,54.003906
2019-04-01T02:13:55.902Z,54.003906
2019-04-01T02:14:56.045Z,53.69873
2019-04-01T02:15:56.179Z,54.003906
2019-04-01T02:16:56.334Z,53.601074
2019-04-01T02:17:56.472Z,53.80249
2019-04-01T02:18:56.629Z,53.80249
2019-04-01T02:19:56.773Z,53.900146
2019-04-01T02:20:56.924Z,53.497314
2019-04-01T02:21:57.101Z,53.80249
2019-04-01T02:22:57.215Z,53.80249
2019-04-01T02:23:57.344Z,53.900146
2019-04-01T02:24:58.492Z,54.101562
2019-04-01T02:25:57.543Z,54.101562
2019-04-01T02:26:57.673Z,54.101562
2019-04-01T02:27:57.812Z,54.101562
2019-04-01T02:28:57.953Z,54.003906
2019-04-01T02:29:58.102Z,53.80249
2019-04-01T02:30:58.266Z,53.900146
2019-04-01T02:31:58.422Z,54.003906
2019-04-01T02:32:58.593Z,53.900146
2019-04-01T02:33:58.552Z,54.101562
2019-04-01T02:34:58.687Z,54.003906
2019-04-01T02:35:58.834Z,54.003906
2019-04-01T02:36:58.995Z,54.101562
2019-04-01T02:37:59.291Z,54.101562
2019-04-01T02:38:59.276Z,54.101562
2019-04-01T02:39:59.405Z,53.900146
2019-04-01T02:40:59.570Z,53.497314
2019-04-01T02:41:59.647Z,53.601074
2019-04-01T02:42:59.785Z,54.205322
2019-04-01T02:43:59.921Z,54.101562
2019-04-01T02:45:00.552Z,54.003906
2019-04-01T02:46:00.057Z,54.205322
2019-04-01T02:47:00.246Z,53.497314
2019-04-01T02:48:00.371Z,54.101562
2019-04-01T02:49:00.525Z,54.101562
2019-04-01T02:50:00.633Z,54.003906
2019-04-01T02:51:00.773Z,54.205322
2019-04-01T02:52:00.918Z,54.309082
2019-04-01T02:53:01.069Z,54.309082
2019-04-01T02:54:01.133Z,54.205322
2019-04-01T02:55:06.319Z,54.205322
2019-04-01T02:56:01.448Z,54.205322
2019-04-01T02:57:01.573Z,54.309082
2019-04-01T02:58:01.690Z,54.309082
2019-04-01T02:59:01.842Z,54.205322
2019-04-01T03:00:02.039Z,54.309082
2019-04-01T03:01:02.161Z,54.309082
2019-04-01T03:02:02.283Z,54.205322
2019-04-01T03:03:02.428Z,54.205322
2019-04-01T03:04:02.529Z,54.205322
2019-04-01T03:05:02.735Z,54.205322
2019-04-01T03:06:03.898Z,54.205322
2019-04-01T03:07:02.917Z,54.205322
2019-04-01T03:08:03.054Z,54.205322
2019-04-01T03:09:03.201Z,54.309082
2019-04-01T03:10:03.358Z,54.309082
2019-04-01T03:11:03.476Z,54.309082
2019-04-01T03:12:03.609Z,54.309082
2019-04-01T03:13:03.732Z,54.309082
2019-04-01T03:14:03.863Z,54.309082
2019-04-01T03:15:04.000Z,54.309082
2019-04-01T03:16:04.164Z,54.309082
2019-04-01T03:17:04.317Z,54.309082
2019-04-01T03:18:04.291Z,54.406738
2019-04-01T03:19:04.444Z,54.406738
2019-04-01T03:20:04.601Z,54.406738
2019-04-01T03:21:04.723Z,54.406738
2019-04-01T03:22:04.881Z,54.406738
2019-04-01T03:23:04.998Z,54.309082
2019-04-01T03:24:05.124Z,54.309082
2019-04-01T03:25:05.295Z,53.094482
2019-04-01T03:26:05.445Z,54.101562
2019-04-01T03:27:05.557Z,54.205322
2019-04-01T03:28:06.702Z,54.309082
2019-04-01T03:29:05.734Z,54.309082
2019-04-01T03:30:05.880Z,54.406738
2019-04-01T03:31:05.974Z,54.309082
2019-04-01T03:32:06.123Z,54.309082
2019-04-01T03:33:06.310Z,54.406738
2019-04-01T03:34:06.429Z,54.309082
2019-04-01T03:35:06.592Z,54.406738
2019-04-01T03:36:06.744Z,54.510498
2019-04-01T03:37:06.885Z,54.406738
2019-04-01T03:38:06.896Z,54.510498
2019-04-01T03:39:07.023Z,54.510498
2019-04-01T03:40:07.165Z,54.510498
2019-04-01T03:41:07.341Z,54.510498
2019-04-01T03:42:07.456Z,54.406738
2019-04-01T03:43:07.607Z,54.406738
2019-04-01T03:44:07.761Z,54.406738
2019-04-01T03:45:07.928Z,54.406738
2019-04-01T03:46:08.058Z,54.406738
2019-04-01T03:47:08.192Z,54.406738
2019-04-01T03:48:08.366Z,54.406738
2019-04-01T03:49:08.334Z,54.406738
2019-04-01T03:50:08.504Z,54.406738
2019-04-01T03:51:08.510Z,54.406738
2019-04-01T03:52:10.309Z,54.406738
2019-04-01T03:53:08.778Z,54.510498
2019-04-01T03:54:08.772Z,54.632568
2019-04-01T03:55:08.910Z,54.632568
2019-04-01T03:56:09.059Z,54.632568
2019-04-01T03:57:09.187Z,54.534912
2019-04-01T03:58:09.362Z,54.608154
2019-04-01T03:59:10.154Z,54.608154
2019-04-01T04:00:09.618Z,54.608154
2019-04-01T04:01:09.721Z,54.510498
2019-04-01T04:02:09.860Z,54.510498
2019-04-01T04:03:09.995Z,54.510498
2019-04-01T04:04:10.154Z,54.510498
2019-04-01T04:05:10.297Z,54.406738
2019-04-01T04:06:10.442Z,54.534912
2019-04-01T04:07:10.596Z,54.632568
2019-04-01T04:08:10.736Z,54.632568
2019-04-01T04:09:10.876Z,54.608154
2019-04-01T04:10:11.025Z,54.632568
2019-04-01T04:11:11.165Z,54.534912
2019-04-01T04:12:11.303Z,54.632568
2019-04-01T04:13:11.439Z,54.632568
2019-04-01T04:14:11.587Z,54.510498
2019-04-01T04:15:11.763Z,54.510498
2019-04-01T04:16:11.895Z,54.632568
2019-04-01T04:17:12.011Z,54.736328
2019-04-01T04:18:12.174Z,54.632568
2019-04-01T04:19:12.293Z,54.632568
2019-04-01T04:20:12.443Z,54.736328
2019-04-01T04:21:12.584Z,54.534912
2019-04-01T04:22:13.693Z,54.431152
2019-04-01T04:23:12.747Z,54.534912
2019-04-01T04:24:12.888Z,54.632568
2019-04-01T04:25:13.052Z,54.632568
2019-04-01T04:26:13.007Z,54.632568
2019-04-01T04:27:13.170Z,54.632568
2019-04-01T04:28:13.306Z,54.632568
2019-04-01T04:29:13.308Z,54.736328
2019-04-01T04:30:13.468Z,54.632568
2019-04-01T04:31:13.591Z,54.736328
2019-04-01T04:32:14.733Z,54.736328
2019-04-01T04:33:13.743Z,54.736328
2019-04-01T04:34:13.924Z,54.736328
2019-04-01T04:35:14.068Z,54.534912
2019-04-01T04:36:14.208Z,54.632568
2019-04-01T04:37:14.379Z,54.632568
2019-04-01T04:38:14.546Z,54.736328
2019-04-01T04:39:14.639Z,54.736328
2019-04-01T04:40:14.783Z,54.632568
2019-04-01T04:41:14.930Z,54.632568
2019-04-01T04:42:14.926Z,54.736328
2019-04-01T04:43:15.128Z,54.736328
2019-04-01T04:44:15.056Z,54.736328
2019-04-01T04:45:15.213Z,54.736328
2019-04-01T04:46:15.362Z,54.736328
2019-04-01T04:47:15.485Z,54.736328
2019-04-01T04:48:15.661Z,54.736328
2019-04-01T04:49:15.810Z,54.736328
2019-04-01T04:50:15.950Z,54.736328
2019-04-01T04:51:16.071Z,54.736328
2019-04-01T04:52:16.216Z,54.632568
2019-04-01T04:53:16.331Z,54.833984
2019-04-01T04:54:16.461Z,54.833984
2019-04-01T04:55:16.610Z,54.736328
2019-04-01T04:56:16.762Z,54.736328
2019-04-01T04:57:20.076Z,54.833984
2019-04-01T04:58:16.944Z,54.833984
2019-04-01T04:59:16.942Z,54.833984
2019-04-01T05:00:16.965Z,54.534912
2019-04-01T05:01:16.974Z,54.833984
2019-04-01T05:02:17.011Z,54.833984
2019-04-01T05:03:16.982Z,54.833984
2019-04-01T05:04:16.989Z,54.833984
2019-04-01T05:05:16.983Z,54.833984
2019-04-01T05:06:16.977Z,54.833984
2019-04-01T05:07:16.995Z,54.833984
2019-04-01T05:08:16.993Z,54.833984
2019-04-01T05:09:17.176Z,54.833984
2019-04-01T05:10:17.186Z,54.833984
2019-04-01T05:11:17.201Z,54.833984
2019-04-01T05:12:17.234Z,54.937744
2019-04-01T05:13:17.206Z,54.937744
2019-04-01T05:14:17.203Z,54.833984
2019-04-01T05:15:18.360Z,54.632568
2019-04-01T05:16:17.448Z,54.833984
2019-04-01T05:17:17.632Z,54.833984
2019-04-01T05:18:17.618Z,54.833984
2019-04-01T05:19:17.648Z,54.937744
2019-04-01T05:20:17.663Z,54.833984
2019-04-01T05:21:17.673Z,54.833984
2019-04-01T05:22:17.664Z,54.937744
2019-04-01T05:23:17.697Z,54.937744
2019-04-01T05:24:17.730Z,54.833984
2019-04-01T05:25:17.774Z,54.833984
2019-04-01T05:26:18.759Z,54.833984
2019-04-01T05:27:17.843Z,54.833984
2019-04-01T05:28:17.848Z,54.833984
2019-04-01T05:29:17.836Z,54.833984
2019-04-01T05:30:17.858Z,54.833984
2019-04-01T05:31:17.871Z,54.833984
2019-04-01T05:32:17.874Z,54.833984
2019-04-01T05:33:17.872Z,54.833984
2019-04-01T05:34:18.000Z,54.833984
2019-04-01T05:35:17.985Z,54.937744
2019-04-01T05:36:18.045Z,54.937744
2019-04-01T05:37:18.119Z,54.937744
2019-04-01T05:38:18.195Z,54.937744
2019-04-01T05:39:18.262Z,54.833984
2019-04-01T05:40:18.319Z,54.833984
2019-04-01T05:41:18.402Z,54.736328
2019-04-01T05:42:18.472Z,54.534912
2019-04-01T05:43:18.517Z,54.736328
2019-04-01T05:44:19.570Z,54.833984
2019-04-01T05:45:18.681Z,54.736328
2019-04-01T05:46:18.732Z,54.833984
2019-04-01T05:47:18.798Z,54.833984
2019-04-01T05:48:18.870Z,54.833984
2019-04-01T05:49:19.014Z,54.833984
2019-04-01T05:50:19.182Z,54.833984
2019-04-01T05:51:19.403Z,54.736328
2019-04-01T05:52:19.469Z,54.736328
2019-04-01T05:53:19.612Z,54.833984
2019-04-01T05:54:19.749Z,54.833984
2019-04-01T05:55:19.897Z,54.431152
2019-04-01T05:56:20.040Z,54.736328
2019-04-01T05:57:20.224Z,54.736328
2019-04-01T05:58:20.173Z,54.833984
2019-04-01T05:59:20.324Z,54.736328
2019-04-01T06:00:20.892Z,54.937744
2019-04-01T06:01:20.571Z,54.632568
2019-04-01T06:02:20.714Z,54.534912
2019-04-01T06:03:20.874Z,54.736328
2019-04-01T06:04:20.946Z,54.736328
2019-04-01T06:05:21.006Z,54.02832
2019-04-01T06:06:21.055Z,54.736328
2019-04-01T06:07:21.094Z,54.431152
2019-04-01T06:08:21.158Z,54.833984
2019-04-01T06:09:21.233Z,54.833984
2019-04-01T06:10:21.307Z,54.833984
2019-04-01T06:11:21.388Z,54.833984
2019-04-01T06:12:24.099Z,54.833984
2019-04-01T06:13:21.504Z,54.833984
2019-04-01T06:14:21.597Z,54.833984
2019-04-01T06:15:21.631Z,54.632568
2019-04-01T06:16:21.678Z,54.833984
2019-04-01T06:17:21.763Z,54.833984
2019-04-01T06:18:21.805Z,54.534912
2019-04-01T06:19:21.891Z,54.736328
2019-04-01T06:20:21.946Z,54.736328
2019-04-01T06:21:22.008Z,54.833984
2019-04-01T06:22:22.062Z,54.736328
2019-04-01T06:23:22.165Z,54.431152
2019-04-01T06:24:24.636Z,54.632568
2019-04-01T06:25:22.439Z,54.833984
2019-04-01T06:26:22.545Z,54.736328
2019-04-01T06:27:23.093Z,54.632568
2019-04-01T06:28:22.813Z,54.632568
2019-04-01T06:29:22.950Z,54.736328
2019-04-01T06:30:23.111Z,54.736328
2019-04-01T06:31:23.232Z,54.632568
2019-04-01T06:32:23.363Z,54.833984
2019-04-01T06:33:23.511Z,54.736328
2019-04-01T06:34:23.648Z,54.632568
2019-04-01T06:35:23.789Z,54.632568
2019-04-01T06:36:23.936Z,54.431152
2019-04-01T06:37:24.058Z,54.632568
2019-04-01T06:38:24.182Z,54.534912
2019-04-01T06:39:24.304Z,54.534912
2019-04-01T06:40:24.455Z,54.534912
2019-04-01T06:41:24.564Z,54.02832
2019-04-01T06:42:24.749Z,54.333496
2019-04-01T06:43:24.768Z,54.632568
2019-04-01T06:44:24.902Z,54.534912
2019-04-01T06:45:25.265Z,54.937744
2019-04-01T06:46:25.348Z,54.937744
2019-04-01T06:47:25.278Z,54.833984
2019-04-01T06:48:25.404Z,54.833984
2019-04-01T06:49:25.487Z,54.736328
2019-04-01T06:50:25.741Z,53.826904
2019-04-01T06:51:25.810Z,54.333496
2019-04-01T06:52:25.816Z,55.041504
2019-04-01T06:53:25.665Z,54.937744
2019-04-01T06:54:25.727Z,54.937744
2019-04-01T06:55:25.798Z,54.736328
2019-04-01T06:56:25.898Z,54.534912
2019-04-01T06:57:26.057Z,54.333496
2019-04-01T06:58:26.118Z,54.02832
2019-04-01T06:59:26.198Z,53.826904
2019-04-01T07:00:26.262Z,53.826904
2019-04-01T07:01:26.348Z,53.222656
2019-04-01T07:02:26.403Z,53.521729
2019-04-01T07:03:26.474Z,53.625488
2019-04-01T07:04:26.546Z,53.424072
2019-04-01T07:05:26.615Z,53.424072
2019-04-01T07:06:26.651Z,53.320312
2019-04-01T07:07:26.708Z,53.118896
2019-04-01T07:08:26.762Z,53.02124
2019-04-01T07:09:26.815Z,53.02124
2019-04-01T07:10:27.096Z,53.118896
2019-04-01T07:11:26.977Z,50.115967
2019-04-01T07:12:26.984Z,48.901367
2019-04-01T07:13:27.170Z,50.921631
2019-04-01T07:14:28.269Z,51.654053
2019-04-01T07:15:27.311Z,43.463135
2019-04-01T07:16:27.391Z,43.688965
2019-04-01T07:17:28.495Z,50.463867
2019-04-01T07:18:27.532Z,52.563477
2019-04-01T07:19:27.661Z,51.959229
2019-04-01T07:20:27.855Z,51.855469
2019-04-01T07:21:27.934Z,51.025391
2019-04-01T07:22:27.999Z,50.415039
2019-04-01T07:23:28.077Z,50.213623
2019-04-01T07:24:28.195Z,50.518799
2019-04-01T07:25:28.360Z,50.823975
2019-04-01T07:26:28.315Z,50.616455
2019-04-01T07:27:28.428Z,50.720215
2019-04-01T07:28:28.439Z,50.415039
2019-04-01T07:29:28.593Z,50.518799
2019-04-01T07:30:28.629Z,50.415039
2019-04-01T07:31:29.629Z,50.292969
2019-04-01T07:32:29.799Z,50.189209
2019-04-01T07:33:28.794Z,49.987793
2019-04-01T07:34:28.820Z,49.890137
2019-04-01T07:35:28.823Z,49.786377
2019-04-01T07:36:28.817Z,49.987793
2019-04-01T07:37:28.820Z,49.987793
2019-04-01T07:38:37.035Z,50.091553
2019-04-01T07:39:29.032Z,49.987793
2019-04-01T07:40:29.170Z,50.091553
2019-04-01T07:41:29.286Z,49.786377
2019-04-01T07:42:29.296Z,50.091553
2019-04-01T07:43:29.433Z,50.091553
2019-04-01T07:44:29.551Z,50.189209
2019-04-01T07:45:29.708Z,50.091553
2019-04-01T07:46:29.842Z,50.189209
2019-04-01T07:47:29.990Z,50.189209
2019-04-01T07:48:30.083Z,50.189209
2019-04-01T07:49:30.200Z,49.865723
2019-04-01T07:50:30.394Z,50.091553
2019-04-01T07:51:30.478Z,50.292969
2019-04-01T07:52:30.625Z,50.390625
2019-04-01T07:53:30.742Z,50.268555
2019-04-01T07:54:30.865Z,50.268555
2019-04-01T07:55:31.021Z,50.366211
2019-04-01T07:56:31.160Z,50.366211
2019-04-01T07:57:32.724Z,50.366211
2019-04-01T07:58:31.431Z,50.366211
2019-04-01T07:59:31.537Z,50.366211
2019-04-01T08:00:32.650Z,50.469971
2019-04-01T08:01:31.663Z,50.469971
2019-04-01T08:02:31.759Z,50.366211
2019-04-01T08:03:31.891Z,50.57373
2019-04-01T08:04:32.009Z,50.469971
2019-04-01T08:05:32.156Z,50.469971
2019-04-01T08:06:32.321Z,50.469971
2019-04-01T08:07:32.432Z,50.57373
2019-04-01T08:08:32.559Z,50.469971
2019-04-01T08:09:33.705Z,50.57373
2019-04-01T08:10:32.734Z,50.57373
2019-04-01T08:11:32.867Z,50.469971
2019-04-01T08:12:33.010Z,50.469971
2019-04-01T08:13:33.176Z,50.469971
2019-04-01T08:14:33.278Z,50.57373
2019-04-01T08:15:33.403Z,50.57373
2019-04-01T08:16:33.554Z,50.469971
2019-04-01T08:17:33.705Z,50.57373
2019-04-01T08:18:34.217Z,50.57373
2019-04-01T08:19:33.970Z,50.57373
2019-04-01T08:20:34.090Z,50.549316
2019-04-01T08:21:34.236Z,50.646973
2019-04-01T08:22:34.391Z,50.671387
2019-04-01T08:23:34.560Z,50.646973
2019-04-01T08:24:34.666Z,50.549316
2019-04-01T08:25:34.804Z,50.549316
2019-04-01T08:26:35.901Z,50.646973
2019-04-01T08:27:34.942Z,50.549316
2019-04-01T08:28:35.072Z,50.549316
2019-04-01T08:29:35.193Z,50.549316
2019-04-01T08:30:35.360Z,50.750732
2019-04-01T08:31:35.491Z,50.750732
2019-04-01T08:32:35.590Z,50.750732
2019-04-01T08:33:35.712Z,50.750732
2019-04-01T08:34:35.846Z,50.646973
2019-04-01T08:35:35.990Z,50.750732
2019-04-01T08:36:36.117Z,50.646973
2019-04-01T08:37:39.771Z,50.750732
2019-04-01T08:38:36.401Z,50.750732
2019-04-01T08:39:36.523Z,50.750732
2019-04-01T08:40:36.658Z,50.750732
2019-04-01T08:41:36.781Z,50.750732
2019-04-01T08:42:36.961Z,50.750732
2019-04-01T08:43:38.052Z,50.646973
2019-04-01T08:44:37.055Z,50.750732
2019-04-01T08:45:37.196Z,50.750732
2019-04-01T08:46:37.327Z,50.750732
2019-04-01T08:47:37.461Z,50.750732
2019-04-01T08:48:37.588Z,50.750732
2019-04-01T08:49:37.711Z,50.646973
2019-04-01T08:50:37.868Z,50.750732
2019-04-01T08:51:37.991Z,50.848389
2019-04-01T08:52:38.122Z,50.848389
2019-04-01T08:53:38.254Z,50.848389
2019-04-01T08:54:38.375Z,50.848389
2019-04-01T08:55:39.485Z,50.848389
2019-04-01T08:56:38.458Z,50.848389
2019-04-01T08:57:38.569Z,50.848389
2019-04-01T08:58:38.708Z,50.726318
2019-04-01T08:59:38.839Z,50.726318
2019-04-01T09:00:38.980Z,50.726318
2019-04-01T09:01:39.091Z,50.726318
2019-04-01T09:02:39.228Z,50.726318
2019-04-01T09:03:39.380Z,50.726318
2019-04-01T09:04:39.498Z,50.726318
2019-04-01T09:05:39.612Z,50.622559
2019-04-01T09:06:39.725Z,50.622559
2019-04-01T09:07:39.863Z,50.726318
2019-04-01T09:08:40.011Z,50.726318
2019-04-01T09:09:40.144Z,50.524902
2019-04-01T09:10:40.270Z,50.726318
2019-04-01T09:11:40.409Z,50.726318
2019-04-01T09:12:40.516Z,50.726318
2019-04-01T09:13:40.629Z,50.622559
2019-04-01T09:14:40.796Z,50.726318
2019-04-01T09:15:40.887Z,50.823975
2019-04-01T09:16:41.009Z,50.726318
2019-04-01T09:17:42.128Z,50.726318
2019-04-01T09:18:41.149Z,50.726318
2019-04-01T09:19:41.325Z,50.726318
2019-04-01T09:20:41.373Z,50.726318
2019-04-01T09:21:41.499Z,50.726318
2019-04-01T09:22:41.592Z,50.622559
2019-04-01T09:23:41.706Z,50.726318
2019-04-01T09:24:41.826Z,50.622559
2019-04-01T09:25:41.937Z,50.622559
2019-04-01T09:26:42.049Z,50.622559
2019-04-01T09:27:42.171Z,50.726318
2019-04-01T09:28:42.285Z,50.726318
2019-04-01T09:29:42.386Z,50.726318
2019-04-01T09:30:42.469Z,50.726318
2019-04-01T09:31:42.584Z,50.726318
2019-04-01T09:32:42.688Z,50.622559
2019-04-01T09:33:42.803Z,50.701904
2019-04-01T09:34:42.937Z,50.701904
2019-04-01T09:35:43.026Z,50.598145
2019-04-01T09:36:43.118Z,50.598145
2019-04-01T09:37:43.198Z,50.598145
2019-04-01T09:38:43.296Z,50.701904
2019-04-01T09:39:43.417Z,50.701904
2019-04-01T09:40:43.515Z,50.598145
2019-04-01T09:41:43.608Z,50.500488
2019-04-01T09:42:43.732Z,50.598145
2019-04-01T09:43:43.814Z,50.598145
2019-04-01T09:44:43.960Z,50.598145
2019-04-01T09:45:44.055Z,50.500488
2019-04-01T09:46:44.189Z,50.500488
2019-04-01T09:47:44.253Z,50.598145
2019-04-01T09:48:44.357Z,50.598145
2019-04-01T09:49:44.475Z,50.598145
2019-04-01T09:50:45.575Z,50.500488
2019-04-01T09:51:48.676Z,50.598145
2019-04-01T09:52:44.874Z,50.598145
2019-04-01T09:53:44.975Z,50.500488
2019-04-01T09:54:45.081Z,50.598145
2019-04-01T09:55:45.214Z,50.598145
2019-04-01T09:56:45.324Z,50.598145
2019-04-01T09:57:45.469Z,50.598145
2019-04-01T09:58:45.612Z,50.500488
2019-04-01T09:59:45.727Z,50.396729
2019-04-01T10:00:45.815Z,50.500488
2019-04-01T10:01:45.913Z,50.500488
2019-04-01T10:02:46.059Z,50.598145
2019-04-01T10:03:46.152Z,50.299072
2019-04-01T10:04:46.244Z,50.598145
2019-04-01T10:05:46.364Z,50.396729
2019-04-01T10:06:46.441Z,50.598145
2019-04-01T10:07:46.674Z,50.598145
2019-04-01T10:08:46.651Z,50.57373
2019-04-01T10:09:46.746Z,50.476074
2019-04-01T10:10:46.849Z,50.372314
2019-04-01T10:11:46.945Z,50.476074
2019-04-01T10:12:46.999Z,50.476074
2019-04-01T10:13:47.116Z,50.476074
2019-04-01T10:14:47.225Z,50.372314
2019-04-01T10:15:47.302Z,50.476074
2019-04-01T10:16:47.410Z,50.476074
2019-04-01T10:17:47.460Z,50.372314
2019-04-01T10:18:47.525Z,50.372314
2019-04-01T10:19:47.577Z,50.476074
2019-04-01T10:20:48.619Z,50.476074
2019-04-01T10:21:47.786Z,50.476074
2019-04-01T10:22:47.746Z,50.274658
2019-04-01T10:23:47.811Z,50.372314
2019-04-01T10:24:47.884Z,50.476074
2019-04-01T10:25:51.076Z,50.274658
2019-04-01T10:26:47.934Z,50.274658
2019-04-01T10:27:47.936Z,50.274658
2019-04-01T10:28:47.967Z,50.372314
2019-04-01T10:29:48.013Z,50.372314
2019-04-01T10:30:48.043Z,50.476074
2019-04-01T10:31:48.047Z,50.476074
2019-04-01T10:32:48.069Z,50.476074
2019-04-01T10:33:49.072Z,50.372314
2019-04-01T10:34:48.201Z,50.170898
2019-04-01T10:35:48.233Z,50.274658
2019-04-01T10:36:48.319Z,50.372314
2019-04-01T10:37:48.346Z,50.170898
2019-04-01T10:38:48.372Z,50.170898
2019-04-01T10:39:48.389Z,50.372314
2019-04-01T10:40:49.454Z,50.274658
2019-04-01T10:41:48.522Z,50.170898
2019-04-01T10:42:48.544Z,50.372314
2019-04-01T10:43:48.563Z,50.372314
2019-04-01T10:44:48.604Z,50.372314
2019-04-01T10:45:48.646Z,50.372314
2019-04-01T10:46:48.700Z,50.274658
2019-04-01T10:47:48.754Z,50.250244
2019-04-01T10:48:48.816Z,50.250244
2019-04-01T10:49:48.839Z,50.250244
2019-04-01T10:50:48.895Z,50.250244
2019-04-01T10:51:48.952Z,50.250244
2019-04-01T10:52:49.025Z,49.951172
2019-04-01T10:53:49.050Z,50.152588
2019-04-01T10:54:49.100Z,49.54834
2019-04-01T10:55:49.123Z,50.250244
2019-04-01T10:56:49.223Z,50.152588
2019-04-01T10:57:49.247Z,49.951172
2019-04-01T10:58:49.271Z,49.951172
2019-04-01T10:59:49.288Z,50.048828
2019-04-01T11:00:49.391Z,50.152588
2019-04-01T11:01:49.368Z,49.951172
2019-04-01T11:02:50.115Z,50.250244
2019-04-01T11:03:49.452Z,50.048828
2019-04-01T11:04:49.507Z,49.951172
2019-04-01T11:05:49.549Z,50.152588
2019-04-01T11:06:49.567Z,49.951172
2019-04-01T11:07:49.677Z,50.048828
2019-04-01T11:08:49.653Z,49.749756
2019-04-01T11:09:49.665Z,49.54834
2019-04-01T11:10:49.712Z,50.048828
2019-04-01T11:11:49.737Z,49.951172
2019-04-01T11:12:49.768Z,49.847412
2019-04-01T11:13:51.696Z,50.048828
2019-04-01T11:14:49.808Z,49.951172
2019-04-01T11:15:49.831Z,49.951172
2019-04-01T11:16:49.845Z,49.926758
2019-04-01T11:17:52.404Z,49.926758
2019-04-01T11:18:49.986Z,49.822998
2019-04-01T11:19:50.020Z,49.420166
2019-04-01T11:20:50.042Z,48.21167
2019-04-01T11:21:50.101Z,49.523926
2019-04-01T11:22:50.172Z,46.124268
2019-04-01T11:23:51.174Z,46.704102
2019-04-01T11:24:50.302Z,48.21167
2019-04-01T11:25:50.339Z,48.114014
2019-04-01T11:26:50.464Z,46.801758
2019-04-01T11:27:50.587Z,44.006348
2019-04-01T11:28:50.583Z,43.4021